Weather at Circus Circus Heliport

Public forecast

Using degrees Fahrenheit for public forecast. Weather courtesy of forecast.io.

Closest aviation weather report (METAR) to Circus Circus Heliport

Closest report is McCarran International Airport, 3.5 nm (6.5 km) SSE. Retrieved 2021/06/12 10:56 UTC (35 minutes ago):

KLAS 121056Z 21004KT 10SM CLR 23/M09 A2985 RMK AO2 SLP082 T02331094

Closest aviation forecast (TAF) to Circus Circus Heliport

Closest forecast is McCarran International Airport, 3.5 nm (6.5 km) SSE. Retrieved 2021/06/12 06:22 UTC (5 hours ago):

TAF KLAS 120520Z 1206/1312 21007KT P6SM SKC FM121400 VRB05KT P6SM SKC FM121700 08007KT P6SM SKC FM130400 21008KT P6SM SKC